Wiarton Airport
CYVV : now visible

Airfield :











YOU CAN JOIN US ON...

 
LOGIN :

Register | Disclaimer

   EN    FR    IT 

 









Legend :    VFR   Marginal VFR   IFR   Intensive IFR   Very Intensive IFR
Visi :
Ceiling :
>= 8 km
>= 3000ft
5 to 8 km
1000 to 3000 ft
1500m to 5 km
500 to 1000 ft
800 to 1500m
200 to 500 ft
< 800m
< 200 ft
Symbols :   Thunderstorms  Fog  Heavy snow  Heavy precipitations  Wind > 20 kt






- Airport Elevation : 729 ft
- IATA code : YVV


CYVV - Wiarton

CURRENT METAR :
  • 081900Z 29011G20KT 260V320 12SM BKN015 07/03 A2967 RMK SC6 SLP056

EXPIRED METARs :
  • 081800Z 29010KT 250V310 8SM OVC013 06/03 A2968 RMK SC8 SLP057
  • 081700Z 29008G16KT 260V320 8SM OVC012 05/03 A2967 RMK SC8 SLP055

TAF AMD TAF CYVV
Valid from the 08 at 15:00 until the 08 at 23:00 UTC


081512Z 0815/0823 29007KT 6SM BR OVC010
TEMPO 0815/0817 4SM -DZ BR OVC006
FM081700 27010KT P6SM OVC012
TEMPO 0817/0820 4SM -DZ BR OVC008
FM082000 27008KT P6SM BKN015 OVC030
FM082200 17007KT P6SM BKN030 RMK NXT FCST BY 082000Z



MET'MAP, your aeronautical weather chart ! - Copyright ORBIFLY December 2007 - Disclaimer

ORBIFLY MET'MAP TEAM :

Programming & Development : Alexandra Zaïnal
Concept & original design : Baudouin d'Aumeries
Assistance for programming : Marc-Olivier Méhu
Technical & hardware support : Manuel Goepfert

Contact : metmap@orbifly.com




SOURCES & CREDITS :

   NOAA       Earth
Advisory